sensor_id;sensor_type;location;lat;lon;timestamp;P1;durP1;ratioP1;P2;durP2;ratioP2
12474;SDS011;6302;42.624;23.334;2022-11-15T00:02:23;37.20;;;24.83;;
12474;SDS011;6302;42.624;23.334;2022-11-15T00:04:50;29.97;;;19.60;;
12474;SDS011;6302;42.624;23.334;2022-11-15T00:07:17;27.03;;;18.80;;
12474;SDS011;6302;42.624;23.334;2022-11-15T00:09:43;28.73;;;18.93;;
12474;SDS011;6302;42.624;23.334;2022-11-15T00:12:10;30.70;;;19.50;;
12474;SDS011;6302;42.624;23.334;2022-11-15T00:14:37;31.70;;;19.23;;
12474;SDS011;6302;42.624;23.334;2022-11-15T00:17:07;35.03;;;22.03;;
12474;SDS011;6302;42.624;23.334;2022-11-15T00:19:34;35.53;;;21.70;;
12474;SDS011;6302;42.624;23.334;2022-11-15T00:22:01;39.73;;;22.83;;
12474;SDS011;6302;42.624;23.334;2022-11-15T00:24:28;37.53;;;23.07;;
12474;SDS011;6302;42.624;23.334;2022-11-15T00:26:55;43.80;;;24.97;;
12474;SDS011;6302;42.624;23.334;2022-11-15T00:29:21;51.47;;;30.47;;
12474;SDS011;6302;42.624;23.334;2022-11-15T00:31:48;55.93;;;33.40;;
12474;SDS011;6302;42.624;23.334;2022-11-15T00:34:16;49.70;;;29.97;;
12474;SDS011;6302;42.624;23.334;2022-11-15T00:36:43;53.57;;;29.57;;
12474;SDS011;6302;42.624;23.334;2022-11-15T00:39:10;46.07;;;28.10;;
12474;SDS011;6302;42.624;23.334;2022-11-15T00:41:48;42.13;;;25.50;;
12474;SDS011;6302;42.624;23.334;2022-11-15T00:44:17;40.93;;;24.20;;
12474;SDS011;6302;42.624;23.334;2022-11-15T00:46:43;39.10;;;22.33;;
12474;SDS011;6302;42.624;23.334;2022-11-15T00:49:10;31.83;;;19.73;;
12474;SDS011;6302;42.624;23.334;2022-11-15T00:51:38;28.83;;;18.00;;
12474;SDS011;6302;42.624;23.334;2022-11-15T00:54:05;26.67;;;16.77;;
12474;SDS011;6302;42.624;23.334;2022-11-15T00:56:32;24.97;;;17.07;;
12474;SDS011;6302;42.624;23.334;2022-11-15T00:58:59;24.93;;;15.00;;
12474;SDS011;6302;42.624;23.334;2022-11-15T01:01:25;24.63;;;15.77;;
12474;SDS011;6302;42.624;23.334;2022-11-15T01:03:52;26.03;;;16.53;;
12474;SDS011;6302;42.624;23.334;2022-11-15T01:06:19;25.77;;;16.07;;
12474;SDS011;6302;42.624;23.334;2022-11-15T01:08:47;25.47;;;16.33;;
12474;SDS011;6302;42.624;23.334;2022-11-15T01:11:14;26.50;;;16.43;;
12474;SDS011;6302;42.624;23.334;2022-11-15T01:13:40;30.77;;;18.27;;
12474;SDS011;6302;42.624;23.334;2022-11-15T01:16:08;41.57;;;26.30;;
12474;SDS011;6302;42.624;23.334;2022-11-15T01:18:36;40.30;;;24.03;;
12474;SDS011;6302;42.624;23.334;2022-11-15T01:21:04;42.80;;;25.17;;
12474;SDS011;6302;42.624;23.334;2022-11-15T01:23:32;39.30;;;22.37;;
12474;SDS011;6302;42.624;23.334;2022-11-15T01:26:01;38.77;;;20.90;;
12474;SDS011;6302;42.624;23.334;2022-11-15T01:28:29;34.10;;;19.83;;
12474;SDS011;6302;42.624;23.334;2022-11-15T01:30:57;32.33;;;20.37;;
12474;SDS011;6302;42.624;23.334;2022-11-15T01:33:24;25.87;;;16.97;;
12474;SDS011;6302;42.624;23.334;2022-11-15T01:35:51;22.87;;;15.57;;
12474;SDS011;6302;42.624;23.334;2022-11-15T01:38:18;22.80;;;16.37;;
12474;SDS011;6302;42.624;23.334;2022-11-15T01:40:45;23.77;;;16.00;;
12474;SDS011;6302;42.624;23.334;2022-11-15T01:43:23;20.40;;;15.73;;
12474;SDS011;6302;42.624;23.334;2022-11-15T01:45:52;29.17;;;16.27;;
12474;SDS011;6302;42.624;23.334;2022-11-15T01:48:24;30.10;;;18.10;;
12474;SDS011;6302;42.624;23.334;2022-11-15T01:50:54;35.33;;;19.90;;
12474;SDS011;6302;42.624;23.334;2022-11-15T01:53:21;30.47;;;18.40;;
12474;SDS011;6302;42.624;23.334;2022-11-15T01:55:51;28.30;;;17.23;;
12474;SDS011;6302;42.624;23.334;2022-11-15T01:58:20;32.50;;;19.07;;
12474;SDS011;6302;42.624;23.334;2022-11-15T02:00:48;35.80;;;22.90;;
12474;SDS011;6302;42.624;23.334;2022-11-15T02:03:16;40.07;;;24.77;;
12474;SDS011;6302;42.624;23.334;2022-11-15T02:05:43;32.10;;;21.27;;
12474;SDS011;6302;42.624;23.334;2022-11-15T02:08:10;29.83;;;20.23;;
12474;SDS011;6302;42.624;23.334;2022-11-15T02:10:45;32.43;;;20.77;;
12474;SDS011;6302;42.624;23.334;2022-11-15T02:13:11;31.47;;;20.83;;
12474;SDS011;6302;42.624;23.334;2022-11-15T02:15:40;30.27;;;18.73;;
12474;SDS011;6302;42.624;23.334;2022-11-15T02:18:21;35.30;;;19.50;;
12474;SDS011;6302;42.624;23.334;2022-11-15T02:21:04;30.60;;;19.57;;
12474;SDS011;6302;42.624;23.334;2022-11-15T02:23:44;26.03;;;17.63;;
12474;SDS011;6302;42.624;23.334;2022-11-15T02:26:51;27.60;;;16.67;;
12474;SDS011;6302;42.624;23.334;2022-11-15T02:29:47;29.70;;;18.13;;
12474;SDS011;6302;42.624;23.334;2022-11-15T02:32:29;25.70;;;18.03;;
12474;SDS011;6302;42.624;23.334;2022-11-15T02:35:02;28.43;;;17.17;;
12474;SDS011;6302;42.624;23.334;2022-11-15T02:37:39;25.53;;;16.67;;
12474;SDS011;6302;42.624;23.334;2022-11-15T02:40:11;23.13;;;15.70;;
12474;SDS011;6302;42.624;23.334;2022-11-15T02:42:51;24.80;;;17.30;;
12474;SDS011;6302;42.624;23.334;2022-11-15T02:45:39;28.50;;;17.13;;
12474;SDS011;6302;42.624;23.334;2022-11-15T02:48:11;33.47;;;20.93;;
12474;SDS011;6302;42.624;23.334;2022-11-15T02:50:38;31.43;;;20.13;;
12474;SDS011;6302;42.624;23.334;2022-11-15T02:53:05;35.07;;;19.80;;
12474;SDS011;6302;42.624;23.334;2022-11-15T02:55:33;32.93;;;20.73;;
12474;SDS011;6302;42.624;23.334;2022-11-15T02:58:06;29.13;;;20.50;;
12474;SDS011;6302;42.624;23.334;2022-11-15T03:00:45;24.27;;;17.40;;
12474;SDS011;6302;42.624;23.334;2022-11-15T03:03:27;25.63;;;17.73;;
12474;SDS011;6302;42.624;23.334;2022-11-15T03:06:05;30.10;;;18.70;;
12474;SDS011;6302;42.624;23.334;2022-11-15T03:08:44;37.00;;;23.17;;
12474;SDS011;6302;42.624;23.334;2022-11-15T03:11:20;29.47;;;20.70;;
12474;SDS011;6302;42.624;23.334;2022-11-15T03:13:51;34.13;;;20.03;;
12474;SDS011;6302;42.624;23.334;2022-11-15T03:16:24;29.57;;;18.40;;
12474;SDS011;6302;42.624;23.334;2022-11-15T03:19:02;30.20;;;20.03;;
12474;SDS011;6302;42.624;23.334;2022-11-15T03:21:33;28.43;;;19.67;;
12474;SDS011;6302;42.624;23.334;2022-11-15T03:24:02;28.20;;;18.60;;
12474;SDS011;6302;42.624;23.334;2022-11-15T03:26:31;29.27;;;18.90;;
12474;SDS011;6302;42.624;23.334;2022-11-15T03:29:03;33.47;;;21.33;;
12474;SDS011;6302;42.624;23.334;2022-11-15T03:31:34;41.67;;;22.87;;
12474;SDS011;6302;42.624;23.334;2022-11-15T03:34:19;32.53;;;20.83;;
12474;SDS011;6302;42.624;23.334;2022-11-15T03:36:51;45.83;;;22.97;;
12474;SDS011;6302;42.624;23.334;2022-11-15T03:39:18;46.97;;;23.40;;
12474;SDS011;6302;42.624;23.334;2022-11-15T03:41:48;48.93;;;25.97;;
12474;SDS011;6302;42.624;23.334;2022-11-15T03:44:20;46.33;;;25.43;;
12474;SDS011;6302;42.624;23.334;2022-11-15T03:47:00;51.27;;;25.97;;
12474;SDS011;6302;42.624;23.334;2022-11-15T03:49:33;39.67;;;23.03;;
12474;SDS011;6302;42.624;23.334;2022-11-15T03:52:03;35.17;;;22.67;;
12474;SDS011;6302;42.624;23.334;2022-11-15T03:54:30;34.87;;;19.30;;
12474;SDS011;6302;42.624;23.334;2022-11-15T03:56:57;25.33;;;17.37;;
12474;SDS011;6302;42.624;23.334;2022-11-15T03:59:24;24.30;;;16.63;;
12474;SDS011;6302;42.624;23.334;2022-11-15T04:01:51;22.53;;;15.13;;
12474;SDS011;6302;42.624;23.334;2022-11-15T04:04:18;19.90;;;15.73;;
12474;SDS011;6302;42.624;23.334;2022-11-15T04:06:46;21.70;;;14.33;;
12474;SDS011;6302;42.624;23.334;2022-11-15T04:09:12;17.60;;;13.47;;
12474;SDS011;6302;42.624;23.334;2022-11-15T04:11:39;19.50;;;14.03;;
12474;SDS011;6302;42.624;23.334;2022-11-15T04:14:06;22.53;;;15.73;;
12474;SDS011;6302;42.624;23.334;2022-11-15T04:16:33;23.97;;;16.93;;
12474;SDS011;6302;42.624;23.334;2022-11-15T04:18:59;28.10;;;17.30;;
12474;SDS011;6302;42.624;23.334;2022-11-15T04:21:44;24.20;;;16.87;;
12474;SDS011;6302;42.624;23.334;2022-11-15T04:24:29;25.60;;;18.27;;
12474;SDS011;6302;42.624;23.334;2022-11-15T04:26:56;32.83;;;19.27;;
12474;SDS011;6302;42.624;23.334;2022-11-15T04:29:26;34.30;;;20.73;;
12474;SDS011;6302;42.624;23.334;2022-11-15T04:32:02;40.40;;;22.47;;
12474;SDS011;6302;42.624;23.334;2022-11-15T04:34:29;44.67;;;25.23;;
12474;SDS011;6302;42.624;23.334;2022-11-15T04:36:57;50.13;;;26.43;;
12474;SDS011;6302;42.624;23.334;2022-11-15T04:39:41;58.50;;;28.57;;
12474;SDS011;6302;42.624;23.334;2022-11-15T04:42:08;51.20;;;28.93;;
12474;SDS011;6302;42.624;23.334;2022-11-15T04:44:36;54.73;;;28.83;;
12474;SDS011;6302;42.624;23.334;2022-11-15T04:47:02;59.40;;;30.73;;
12474;SDS011;6302;42.624;23.334;2022-11-15T04:49:31;149.13;;;34.63;;
12474;SDS011;6302;42.624;23.334;2022-11-15T04:51:59;122.20;;;33.00;;
12474;SDS011;6302;42.624;23.334;2022-11-15T04:54:26;86.83;;;31.40;;
12474;SDS011;6302;42.624;23.334;2022-11-15T04:56:53;78.13;;;32.50;;
12474;SDS011;6302;42.624;23.334;2022-11-15T04:59:19;57.97;;;28.83;;
12474;SDS011;6302;42.624;23.334;2022-11-15T05:01:46;50.10;;;28.20;;
12474;SDS011;6302;42.624;23.334;2022-11-15T05:04:13;49.20;;;28.13;;
12474;SDS011;6302;42.624;23.334;2022-11-15T05:06:45;43.23;;;24.90;;
12474;SDS011;6302;42.624;23.334;2022-11-15T05:09:14;78.27;;;27.83;;
12474;SDS011;6302;42.624;23.334;2022-11-15T05:11:41;91.27;;;26.03;;
12474;SDS011;6302;42.624;23.334;2022-11-15T05:14:08;106.37;;;27.17;;
12474;SDS011;6302;42.624;23.334;2022-11-15T05:16:35;65.10;;;27.80;;
12474;SDS011;6302;42.624;23.334;2022-11-15T05:19:02;88.70;;;31.67;;
12474;SDS011;6302;42.624;23.334;2022-11-15T05:21:29;49.53;;;30.03;;
12474;SDS011;6302;42.624;23.334;2022-11-15T05:23:56;55.90;;;29.77;;
12474;SDS011;6302;42.624;23.334;2022-11-15T05:26:25;48.27;;;27.77;;
12474;SDS011;6302;42.624;23.334;2022-11-15T05:28:53;61.83;;;29.13;;
12474;SDS011;6302;42.624;23.334;2022-11-15T05:31:21;48.27;;;25.87;;
12474;SDS011;6302;42.624;23.334;2022-11-15T05:33:49;55.50;;;26.70;;
12474;SDS011;6302;42.624;23.334;2022-11-15T05:36:19;47.50;;;25.17;;
12474;SDS011;6302;42.624;23.334;2022-11-15T05:38:52;48.83;;;25.13;;
12474;SDS011;6302;42.624;23.334;2022-11-15T05:41:20;41.20;;;23.70;;
12474;SDS011;6302;42.624;23.334;2022-11-15T05:43:50;71.00;;;29.90;;
12474;SDS011;6302;42.624;23.334;2022-11-15T05:46:17;46.87;;;28.37;;
12474;SDS011;6302;42.624;23.334;2022-11-15T05:48:45;67.87;;;30.23;;
12474;SDS011;6302;42.624;23.334;2022-11-15T05:51:15;70.07;;;31.03;;
12474;SDS011;6302;42.624;23.334;2022-11-15T05:53:43;70.17;;;30.37;;
12474;SDS011;6302;42.624;23.334;2022-11-15T05:56:10;62.33;;;28.13;;
12474;SDS011;6302;42.624;23.334;2022-11-15T05:58:38;58.90;;;29.90;;
12474;SDS011;6302;42.624;23.334;2022-11-15T06:01:06;57.93;;;24.77;;
12474;SDS011;6302;42.624;23.334;2022-11-15T06:03:33;72.33;;;24.50;;
12474;SDS011;6302;42.624;23.334;2022-11-15T06:06:00;91.07;;;24.63;;
12474;SDS011;6302;42.624;23.334;2022-11-15T06:08:27;73.77;;;26.57;;
12474;SDS011;6302;42.624;23.334;2022-11-15T06:10:54;60.37;;;24.43;;
12474;SDS011;6302;42.624;23.334;2022-11-15T06:13:20;50.97;;;27.23;;
12474;SDS011;6302;42.624;23.334;2022-11-15T06:15:47;64.37;;;27.07;;
12474;SDS011;6302;42.624;23.334;2022-11-15T06:18:16;84.97;;;30.13;;
12474;SDS011;6302;42.624;23.334;2022-11-15T06:20:42;69.40;;;25.33;;
12474;SDS011;6302;42.624;23.334;2022-11-15T06:23:09;47.93;;;26.87;;
12474;SDS011;6302;42.624;23.334;2022-11-15T06:25:36;69.27;;;27.23;;
12474;SDS011;6302;42.624;23.334;2022-11-15T06:28:03;64.50;;;28.30;;
12474;SDS011;6302;42.624;23.334;2022-11-15T06:30:30;81.30;;;33.90;;
12474;SDS011;6302;42.624;23.334;2022-11-15T06:33:00;55.20;;;26.07;;
12474;SDS011;6302;42.624;23.334;2022-11-15T06:35:29;55.03;;;29.23;;
12474;SDS011;6302;42.624;23.334;2022-11-15T06:38:01;84.73;;;26.63;;
12474;SDS011;6302;42.624;23.334;2022-11-15T06:40:32;71.77;;;24.03;;
12474;SDS011;6302;42.624;23.334;2022-11-15T06:42:59;70.30;;;27.37;;
12474;SDS011;6302;42.624;23.334;2022-11-15T06:45:26;44.23;;;23.47;;
12474;SDS011;6302;42.624;23.334;2022-11-15T06:47:53;49.27;;;23.00;;
12474;SDS011;6302;42.624;23.334;2022-11-15T06:50:20;56.87;;;26.73;;
12474;SDS011;6302;42.624;23.334;2022-11-15T06:52:48;50.43;;;25.03;;
12474;SDS011;6302;42.624;23.334;2022-11-15T06:55:15;44.23;;;24.90;;
12474;SDS011;6302;42.624;23.334;2022-11-15T06:57:48;55.03;;;24.50;;
12474;SDS011;6302;42.624;23.334;2022-11-15T07:00:17;47.80;;;25.23;;
12474;SDS011;6302;42.624;23.334;2022-11-15T07:02:45;231.10;;;37.13;;
12474;SDS011;6302;42.624;23.334;2022-11-15T07:05:14;103.13;;;30.70;;
12474;SDS011;6302;42.624;23.334;2022-11-15T07:10:18;48.10;;;26.83;;
12474;SDS011;6302;42.624;23.334;2022-11-15T07:12:46;47.57;;;27.33;;
12474;SDS011;6302;42.624;23.334;2022-11-15T07:15:13;47.77;;;29.40;;
12474;SDS011;6302;42.624;23.334;2022-11-15T07:17:40;52.23;;;29.07;;
12474;SDS011;6302;42.624;23.334;2022-11-15T07:20:07;49.23;;;28.27;;
12474;SDS011;6302;42.624;23.334;2022-11-15T07:22:35;67.13;;;33.23;;
12474;SDS011;6302;42.624;23.334;2022-11-15T07:25:02;76.10;;;34.10;;
12474;SDS011;6302;42.624;23.334;2022-11-15T07:27:31;86.80;;;32.37;;
12474;SDS011;6302;42.624;23.334;2022-11-15T07:29:58;62.50;;;31.87;;
12474;SDS011;6302;42.624;23.334;2022-11-15T07:32:25;55.70;;;31.30;;
12474;SDS011;6302;42.624;23.334;2022-11-15T07:34:51;87.53;;;34.13;;
12474;SDS011;6302;42.624;23.334;2022-11-15T07:37:18;57.93;;;32.97;;
12474;SDS011;6302;42.624;23.334;2022-11-15T07:39:45;59.07;;;33.60;;
12474;SDS011;6302;42.624;23.334;2022-11-15T07:42:12;124.20;;;36.33;;
12474;SDS011;6302;42.624;23.334;2022-11-15T07:44:57;95.43;;;33.33;;
12474;SDS011;6302;42.624;23.334;2022-11-15T07:47:24;155.67;;;37.13;;
12474;SDS011;6302;42.624;23.334;2022-11-15T07:49:51;92.53;;;34.17;;
12474;SDS011;6302;42.624;23.334;2022-11-15T07:52:18;77.47;;;35.63;;
12474;SDS011;6302;42.624;23.334;2022-11-15T07:54:44;73.83;;;33.37;;
12474;SDS011;6302;42.624;23.334;2022-11-15T07:57:11;99.43;;;34.83;;
12474;SDS011;6302;42.624;23.334;2022-11-15T07:59:38;70.40;;;34.80;;
12474;SDS011;6302;42.624;23.334;2022-11-15T08:02:08;89.20;;;34.93;;
12474;SDS011;6302;42.624;23.334;2022-11-15T08:04:35;66.00;;;35.50;;
12474;SDS011;6302;42.624;23.334;2022-11-15T08:07:01;82.23;;;33.37;;
12474;SDS011;6302;42.624;23.334;2022-11-15T08:09:28;79.83;;;32.30;;
12474;SDS011;6302;42.624;23.334;2022-11-15T08:11:55;80.43;;;32.57;;
12474;SDS011;6302;42.624;23.334;2022-11-15T08:14:22;100.67;;;34.13;;
12474;SDS011;6302;42.624;23.334;2022-11-15T08:16:49;98.50;;;37.77;;
12474;SDS011;6302;42.624;23.334;2022-11-15T08:19:17;109.93;;;39.27;;
12474;SDS011;6302;42.624;23.334;2022-11-15T08:21:43;90.17;;;37.33;;
12474;SDS011;6302;42.624;23.334;2022-11-15T08:24:10;114.03;;;37.97;;
12474;SDS011;6302;42.624;23.334;2022-11-15T08:26:37;125.20;;;38.73;;
12474;SDS011;6302;42.624;23.334;2022-11-15T08:29:04;96.23;;;36.10;;
12474;SDS011;6302;42.624;23.334;2022-11-15T08:31:32;106.23;;;44.17;;
12474;SDS011;6302;42.624;23.334;2022-11-15T08:33:59;107.33;;;41.23;;
12474;SDS011;6302;42.624;23.334;2022-11-15T08:36:28;75.83;;;40.33;;
12474;SDS011;6302;42.624;23.334;2022-11-15T08:38:55;86.20;;;39.40;;
12474;SDS011;6302;42.624;23.334;2022-11-15T08:41:23;115.27;;;41.80;;
12474;SDS011;6302;42.624;23.334;2022-11-15T08:43:52;65.27;;;35.50;;
12474;SDS011;6302;42.624;23.334;2022-11-15T08:46:19;68.03;;;33.40;;
12474;SDS011;6302;42.624;23.334;2022-11-15T08:48:46;65.77;;;34.90;;
12474;SDS011;6302;42.624;23.334;2022-11-15T08:51:13;70.30;;;37.30;;
12474;SDS011;6302;42.624;23.334;2022-11-15T08:53:41;69.63;;;36.67;;
12474;SDS011;6302;42.624;23.334;2022-11-15T08:56:09;63.07;;;35.43;;
12474;SDS011;6302;42.624;23.334;2022-11-15T08:58:36;67.43;;;36.37;;
12474;SDS011;6302;42.624;23.334;2022-11-15T09:01:04;59.03;;;34.43;;
12474;SDS011;6302;42.624;23.334;2022-11-15T09:03:31;64.43;;;35.30;;
12474;SDS011;6302;42.624;23.334;2022-11-15T09:05:59;64.83;;;35.10;;
12474;SDS011;6302;42.624;23.334;2022-11-15T09:08:29;75.10;;;40.20;;
12474;SDS011;6302;42.624;23.334;2022-11-15T09:10:58;91.17;;;41.17;;
12474;SDS011;6302;42.624;23.334;2022-11-15T09:13:24;89.27;;;40.07;;
12474;SDS011;6302;42.624;23.334;2022-11-15T09:15:51;84.37;;;40.47;;
12474;SDS011;6302;42.624;23.334;2022-11-15T09:18:18;95.37;;;42.03;;
12474;SDS011;6302;42.624;23.334;2022-11-15T09:20:47;81.13;;;41.73;;
12474;SDS011;6302;42.624;23.334;2022-11-15T09:23:14;124.40;;;42.90;;
12474;SDS011;6302;42.624;23.334;2022-11-15T09:25:40;91.43;;;41.33;;
12474;SDS011;6302;42.624;23.334;2022-11-15T09:28:08;87.20;;;42.37;;
12474;SDS011;6302;42.624;23.334;2022-11-15T09:30:35;114.40;;;41.33;;
12474;SDS011;6302;42.624;23.334;2022-11-15T09:33:07;107.83;;;46.00;;
12474;SDS011;6302;42.624;23.334;2022-11-15T09:35:34;95.97;;;42.37;;
12474;SDS011;6302;42.624;23.334;2022-11-15T09:38:01;91.43;;;43.40;;
12474;SDS011;6302;42.624;23.334;2022-11-15T09:40:29;84.23;;;42.73;;
12474;SDS011;6302;42.624;23.334;2022-11-15T09:43:01;101.27;;;43.63;;
12474;SDS011;6302;42.624;23.334;2022-11-15T09:45:40;110.23;;;43.70;;
12474;SDS011;6302;42.624;23.334;2022-11-15T09:48:26;78.03;;;42.50;;
12474;SDS011;6302;42.624;23.334;2022-11-15T09:51:21;89.87;;;44.57;;
12474;SDS011;6302;42.624;23.334;2022-11-15T09:53:56;105.47;;;44.50;;
12474;SDS011;6302;42.624;23.334;2022-11-15T09:56:29;95.33;;;45.73;;
12474;SDS011;6302;42.624;23.334;2022-11-15T09:59:00;91.50;;;46.47;;
12474;SDS011;6302;42.624;23.334;2022-11-15T10:01:39;87.90;;;45.33;;
12474;SDS011;6302;42.624;23.334;2022-11-15T10:04:11;94.33;;;47.00;;
12474;SDS011;6302;42.624;23.334;2022-11-15T10:06:38;95.80;;;44.30;;
12474;SDS011;6302;42.624;23.334;2022-11-15T10:09:12;99.13;;;48.00;;
12474;SDS011;6302;42.624;23.334;2022-11-15T10:11:42;91.60;;;44.70;;
12474;SDS011;6302;42.624;23.334;2022-11-15T10:14:10;87.53;;;45.73;;
12474;SDS011;6302;42.624;23.334;2022-11-15T10:17:01;91.63;;;47.20;;
12474;SDS011;6302;42.624;23.334;2022-11-15T10:19:40;93.93;;;47.03;;
12474;SDS011;6302;42.624;23.334;2022-11-15T10:25:14;87.00;;;46.90;;
12474;SDS011;6302;42.624;23.334;2022-11-15T10:27:44;83.10;;;45.70;;
12474;SDS011;6302;42.624;23.334;2022-11-15T10:30:17;101.50;;;47.80;;
12474;SDS011;6302;42.624;23.334;2022-11-15T10:32:47;94.77;;;45.80;;
12474;SDS011;6302;42.624;23.334;2022-11-15T10:35:19;101.20;;;47.80;;
12474;SDS011;6302;42.624;23.334;2022-11-15T10:37:47;90.00;;;46.07;;
12474;SDS011;6302;42.624;23.334;2022-11-15T10:40:16;97.20;;;49.47;;
12474;SDS011;6302;42.624;23.334;2022-11-15T10:42:44;92.60;;;46.30;;
12474;SDS011;6302;42.624;23.334;2022-11-15T10:45:24;87.03;;;45.30;;
12474;SDS011;6302;42.624;23.334;2022-11-15T10:47:55;89.53;;;46.80;;
12474;SDS011;6302;42.624;23.334;2022-11-15T10:50:46;88.83;;;46.80;;
12474;SDS011;6302;42.624;23.334;2022-11-15T10:53:17;93.43;;;46.73;;
12474;SDS011;6302;42.624;23.334;2022-11-15T10:55:49;85.17;;;44.87;;
12474;SDS011;6302;42.624;23.334;2022-11-15T10:58:31;88.90;;;46.70;;
12474;SDS011;6302;42.624;23.334;2022-11-15T11:03:59;78.17;;;43.23;;
12474;SDS011;6302;42.624;23.334;2022-11-15T11:06:27;69.07;;;41.07;;
12474;SDS011;6302;42.624;23.334;2022-11-15T11:08:55;71.10;;;40.60;;
12474;SDS011;6302;42.624;23.334;2022-11-15T11:11:24;72.60;;;41.33;;
12474;SDS011;6302;42.624;23.334;2022-11-15T11:13:51;70.83;;;41.07;;
12474;SDS011;6302;42.624;23.334;2022-11-15T11:16:20;66.70;;;40.60;;
12474;SDS011;6302;42.624;23.334;2022-11-15T11:19:04;67.20;;;40.00;;
12474;SDS011;6302;42.624;23.334;2022-11-15T11:21:43;67.17;;;38.23;;
12474;SDS011;6302;42.624;23.334;2022-11-15T11:24:30;64.27;;;38.43;;
12474;SDS011;6302;42.624;23.334;2022-11-15T11:27:08;60.97;;;36.53;;
12474;SDS011;6302;42.624;23.334;2022-11-15T11:29:49;61.17;;;35.40;;
12474;SDS011;6302;42.624;23.334;2022-11-15T11:32:34;59.53;;;37.13;;
12474;SDS011;6302;42.624;23.334;2022-11-15T11:35:29;60.70;;;36.53;;
12474;SDS011;6302;42.624;23.334;2022-11-15T11:38:01;59.13;;;38.63;;
12474;SDS011;6302;42.624;23.334;2022-11-15T11:40:43;65.60;;;37.87;;
12474;SDS011;6302;42.624;23.334;2022-11-15T11:43:15;59.17;;;36.10;;
12474;SDS011;6302;42.624;23.334;2022-11-15T11:45:55;58.37;;;37.03;;
12474;SDS011;6302;42.624;23.334;2022-11-15T11:48:46;59.37;;;37.57;;
12474;SDS011;6302;42.624;23.334;2022-11-15T11:51:25;72.60;;;39.43;;
12474;SDS011;6302;42.624;23.334;2022-11-15T11:53:56;57.67;;;36.33;;
12474;SDS011;6302;42.624;23.334;2022-11-15T11:56:27;64.07;;;37.50;;
12474;SDS011;6302;42.624;23.334;2022-11-15T11:59:00;59.20;;;36.00;;
12474;SDS011;6302;42.624;23.334;2022-11-15T12:01:33;54.03;;;34.30;;
12474;SDS011;6302;42.624;23.334;2022-11-15T12:04:04;66.77;;;36.33;;
12474;SDS011;6302;42.624;23.334;2022-11-15T12:06:39;59.07;;;36.77;;
12474;SDS011;6302;42.624;23.334;2022-11-15T12:09:14;58.80;;;36.60;;
12474;SDS011;6302;42.624;23.334;2022-11-15T12:11:47;55.37;;;34.57;;
12474;SDS011;6302;42.624;23.334;2022-11-15T12:14:22;61.73;;;36.10;;
12474;SDS011;6302;42.624;23.334;2022-11-15T12:16:56;55.97;;;34.90;;
12474;SDS011;6302;42.624;23.334;2022-11-15T12:19:23;53.10;;;34.37;;
12474;SDS011;6302;42.624;23.334;2022-11-15T12:21:54;53.33;;;37.13;;
12474;SDS011;6302;42.624;23.334;2022-11-15T12:24:27;61.93;;;35.30;;
12474;SDS011;6302;42.624;23.334;2022-11-15T12:26:59;60.73;;;36.40;;
12474;SDS011;6302;42.624;23.334;2022-11-15T12:29:31;54.00;;;35.93;;
12474;SDS011;6302;42.624;23.334;2022-11-15T12:32:01;59.50;;;35.20;;
12474;SDS011;6302;42.624;23.334;2022-11-15T12:34:34;57.27;;;36.37;;
12474;SDS011;6302;42.624;23.334;2022-11-15T12:40:32;53.80;;;34.13;;
12474;SDS011;6302;42.624;23.334;2022-11-15T12:46:13;60.17;;;34.97;;
12474;SDS011;6302;42.624;23.334;2022-11-15T12:48:51;59.13;;;35.93;;
12474;SDS011;6302;42.624;23.334;2022-11-15T12:51:20;53.73;;;35.60;;
12474;SDS011;6302;42.624;23.334;2022-11-15T12:53:50;55.57;;;35.30;;
12474;SDS011;6302;42.624;23.334;2022-11-15T12:56:21;56.87;;;35.23;;
12474;SDS011;6302;42.624;23.334;2022-11-15T12:58:50;56.13;;;35.33;;
12474;SDS011;6302;42.624;23.334;2022-11-15T13:04:22;57.53;;;35.03;;
12474;SDS011;6302;42.624;23.334;2022-11-15T13:06:54;51.07;;;34.20;;
12474;SDS011;6302;42.624;23.334;2022-11-15T13:15:35;52.20;;;33.77;;
12474;SDS011;6302;42.624;23.334;2022-11-15T13:21:04;52.97;;;33.73;;
12474;SDS011;6302;42.624;23.334;2022-11-15T13:24:01;59.40;;;33.27;;
12474;SDS011;6302;42.624;23.334;2022-11-15T13:26:28;53.67;;;33.40;;
12474;SDS011;6302;42.624;23.334;2022-11-15T13:28:57;50.27;;;33.67;;
12474;SDS011;6302;42.624;23.334;2022-11-15T13:31:28;48.80;;;33.07;;
12474;SDS011;6302;42.624;23.334;2022-11-15T13:34:01;49.27;;;32.87;;
12474;SDS011;6302;42.624;23.334;2022-11-15T13:36:39;47.37;;;32.30;;
12474;SDS011;6302;42.624;23.334;2022-11-15T13:39:11;55.13;;;33.57;;
12474;SDS011;6302;42.624;23.334;2022-11-15T13:41:50;50.03;;;31.40;;
12474;SDS011;6302;42.624;23.334;2022-11-15T13:44:20;56.93;;;34.07;;
12474;SDS011;6302;42.624;23.334;2022-11-15T13:46:48;49.50;;;31.73;;
12474;SDS011;6302;42.624;23.334;2022-11-15T13:49:15;50.10;;;32.43;;
12474;SDS011;6302;42.624;23.334;2022-11-15T13:51:42;55.70;;;32.93;;
12474;SDS011;6302;42.624;23.334;2022-11-15T13:54:15;50.43;;;32.63;;
12474;SDS011;6302;42.624;23.334;2022-11-15T13:56:47;53.40;;;33.00;;
12474;SDS011;6302;42.624;23.334;2022-11-15T13:59:25;53.47;;;32.33;;
12474;SDS011;6302;42.624;23.334;2022-11-15T14:01:54;50.77;;;33.87;;
12474;SDS011;6302;42.624;23.334;2022-11-15T14:04:23;45.13;;;31.37;;
12474;SDS011;6302;42.624;23.334;2022-11-15T14:06:55;51.53;;;32.70;;
12474;SDS011;6302;42.624;23.334;2022-11-15T14:09:29;46.13;;;32.17;;
12474;SDS011;6302;42.624;23.334;2022-11-15T14:11:59;52.73;;;32.73;;
12474;SDS011;6302;42.624;23.334;2022-11-15T14:14:29;49.50;;;32.53;;
12474;SDS011;6302;42.624;23.334;2022-11-15T14:16:57;54.10;;;36.43;;
12474;SDS011;6302;42.624;23.334;2022-11-15T14:19:37;56.20;;;36.40;;
12474;SDS011;6302;42.624;23.334;2022-11-15T14:22:13;62.03;;;37.40;;
12474;SDS011;6302;42.624;23.334;2022-11-15T14:24:42;59.70;;;41.37;;
12474;SDS011;6302;42.624;23.334;2022-11-15T14:27:17;70.70;;;43.87;;
12474;SDS011;6302;42.624;23.334;2022-11-15T14:29:47;80.87;;;52.03;;
12474;SDS011;6302;42.624;23.334;2022-11-15T14:32:15;71.30;;;45.33;;
12474;SDS011;6302;42.624;23.334;2022-11-15T14:34:44;63.30;;;39.60;;
12474;SDS011;6302;42.624;23.334;2022-11-15T14:37:21;64.07;;;39.50;;
12474;SDS011;6302;42.624;23.334;2022-11-15T14:39:49;55.93;;;39.93;;
12474;SDS011;6302;42.624;23.334;2022-11-15T14:42:17;62.80;;;41.90;;
12474;SDS011;6302;42.624;23.334;2022-11-15T14:44:44;61.43;;;40.73;;
12474;SDS011;6302;42.624;23.334;2022-11-15T14:47:12;61.37;;;39.57;;
12474;SDS011;6302;42.624;23.334;2022-11-15T14:49:39;62.63;;;40.40;;
12474;SDS011;6302;42.624;23.334;2022-11-15T14:52:25;75.93;;;42.47;;
12474;SDS011;6302;42.624;23.334;2022-11-15T14:54:54;92.53;;;54.53;;
12474;SDS011;6302;42.624;23.334;2022-11-15T14:57:23;106.47;;;57.23;;
12474;SDS011;6302;42.624;23.334;2022-11-15T14:59:50;106.83;;;56.10;;
12474;SDS011;6302;42.624;23.334;2022-11-15T15:02:20;82.13;;;49.13;;
12474;SDS011;6302;42.624;23.334;2022-11-15T15:04:49;85.60;;;51.17;;
12474;SDS011;6302;42.624;23.334;2022-11-15T15:07:16;102.97;;;58.60;;
12474;SDS011;6302;42.624;23.334;2022-11-15T15:09:43;97.73;;;52.33;;